sensor_id;sensor_type;location;lat;lon;timestamp;P1;durP1;ratioP1;P2;durP2;ratioP2
68523;SDS011;55524;51.380;13.372;2023-04-06T00:01:58;5.95;;;3.55;;
68523;SDS011;55524;51.380;13.372;2023-04-06T00:04:25;7.85;;;3.45;;
68523;SDS011;55524;51.380;13.372;2023-04-06T00:06:51;5.80;;;3.28;;
68523;SDS011;55524;51.380;13.372;2023-04-06T00:09:17;5.22;;;3.13;;
68523;SDS011;55524;51.380;13.372;2023-04-06T00:11:44;3.65;;;3.33;;
68523;SDS011;55524;51.380;13.372;2023-04-06T00:14:10;5.00;;;3.50;;
68523;SDS011;55524;51.380;13.372;2023-04-06T00:16:36;3.70;;;3.33;;
68523;SDS011;55524;51.380;13.372;2023-04-06T00:19:03;5.38;;;3.60;;
68523;SDS011;55524;51.380;13.372;2023-04-06T00:21:29;5.30;;;3.67;;
68523;SDS011;55524;51.380;13.372;2023-04-06T00:23:56;3.47;;;3.17;;
68523;SDS011;55524;51.380;13.372;2023-04-06T00:26:22;4.78;;;3.97;;
68523;SDS011;55524;51.380;13.372;2023-04-06T00:28:48;10.93;;;3.53;;
68523;SDS011;55524;51.380;13.372;2023-04-06T00:31:17;5.57;;;3.35;;
68523;SDS011;55524;51.380;13.372;2023-04-06T00:33:43;7.00;;;3.60;;
68523;SDS011;55524;51.380;13.372;2023-04-06T00:36:09;6.15;;;3.50;;
68523;SDS011;55524;51.380;13.372;2023-04-06T00:38:35;5.57;;;3.70;;
68523;SDS011;55524;51.380;13.372;2023-04-06T00:41:03;8.90;;;4.13;;
68523;SDS011;55524;51.380;13.372;2023-04-06T00:43:29;6.45;;;3.70;;
68523;SDS011;55524;51.380;13.372;2023-04-06T00:45:57;4.88;;;4.10;;
68523;SDS011;55524;51.380;13.372;2023-04-06T00:48:23;6.07;;;3.67;;
68523;SDS011;55524;51.380;13.372;2023-04-06T00:50:50;6.28;;;3.88;;
68523;SDS011;55524;51.380;13.372;2023-04-06T00:53:16;7.65;;;4.03;;
68523;SDS011;55524;51.380;13.372;2023-04-06T00:55:42;5.68;;;4.25;;
68523;SDS011;55524;51.380;13.372;2023-04-06T00:58:08;9.25;;;4.35;;
68523;SDS011;55524;51.380;13.372;2023-04-06T01:00:47;7.85;;;4.43;;
68523;SDS011;55524;51.380;13.372;2023-04-06T01:03:13;6.63;;;4.63;;
68523;SDS011;55524;51.380;13.372;2023-04-06T01:05:39;8.63;;;4.30;;
68523;SDS011;55524;51.380;13.372;2023-04-06T01:08:07;6.20;;;4.43;;
68523;SDS011;55524;51.380;13.372;2023-04-06T01:10:34;5.97;;;4.55;;
68523;SDS011;55524;51.380;13.372;2023-04-06T01:13:00;6.10;;;4.00;;
68523;SDS011;55524;51.380;13.372;2023-04-06T01:15:26;6.53;;;4.15;;
68523;SDS011;55524;51.380;13.372;2023-04-06T01:17:54;8.80;;;4.10;;
68523;SDS011;55524;51.380;13.372;2023-04-06T01:20:20;5.75;;;3.97;;
68523;SDS011;55524;51.380;13.372;2023-04-06T01:22:46;9.35;;;4.00;;
68523;SDS011;55524;51.380;13.372;2023-04-06T01:25:12;4.95;;;4.20;;
68523;SDS011;55524;51.380;13.372;2023-04-06T01:27:39;6.10;;;4.40;;
68523;SDS011;55524;51.380;13.372;2023-04-06T01:30:05;8.30;;;4.50;;
68523;SDS011;55524;51.380;13.372;2023-04-06T01:32:32;6.97;;;4.47;;
68523;SDS011;55524;51.380;13.372;2023-04-06T01:34:59;6.35;;;4.57;;
68523;SDS011;55524;51.380;13.372;2023-04-06T01:37:26;5.95;;;4.63;;
68523;SDS011;55524;51.380;13.372;2023-04-06T01:39:52;9.45;;;4.70;;
68523;SDS011;55524;51.380;13.372;2023-04-06T01:42:18;5.47;;;4.55;;
68523;SDS011;55524;51.380;13.372;2023-04-06T01:44:44;7.30;;;4.75;;
68523;SDS011;55524;51.380;13.372;2023-04-06T01:47:11;6.60;;;4.30;;
68523;SDS011;55524;51.380;13.372;2023-04-06T01:49:37;6.45;;;4.32;;
68523;SDS011;55524;51.380;13.372;2023-04-06T01:52:03;5.82;;;4.35;;
68523;SDS011;55524;51.380;13.372;2023-04-06T01:54:30;8.77;;;4.40;;
68523;SDS011;55524;51.380;13.372;2023-04-06T01:56:56;8.35;;;4.70;;
68523;SDS011;55524;51.380;13.372;2023-04-06T01:59:22;7.03;;;4.38;;
68523;SDS011;55524;51.380;13.372;2023-04-06T02:01:48;7.95;;;4.43;;
68523;SDS011;55524;51.380;13.372;2023-04-06T02:04:15;8.13;;;4.60;;
68523;SDS011;55524;51.380;13.372;2023-04-06T02:06:41;6.43;;;4.97;;
68523;SDS011;55524;51.380;13.372;2023-04-06T02:09:08;8.07;;;4.53;;
68523;SDS011;55524;51.380;13.372;2023-04-06T02:11:34;9.63;;;5.03;;
68523;SDS011;55524;51.380;13.372;2023-04-06T02:14:01;5.43;;;3.97;;
68523;SDS011;55524;51.380;13.372;2023-04-06T02:16:27;9.65;;;4.32;;
68523;SDS011;55524;51.380;13.372;2023-04-06T02:18:53;6.13;;;4.55;;
68523;SDS011;55524;51.380;13.372;2023-04-06T02:21:20;9.60;;;5.25;;
68523;SDS011;55524;51.380;13.372;2023-04-06T02:23:46;10.05;;;5.45;;
68523;SDS011;55524;51.380;13.372;2023-04-06T02:26:14;7.90;;;4.75;;
68523;SDS011;55524;51.380;13.372;2023-04-06T02:28:40;6.82;;;4.88;;
68523;SDS011;55524;51.380;13.372;2023-04-06T02:31:07;8.27;;;5.10;;
68523;SDS011;55524;51.380;13.372;2023-04-06T02:33:36;7.43;;;4.93;;
68523;SDS011;55524;51.380;13.372;2023-04-06T02:36:03;9.68;;;5.40;;
68523;SDS011;55524;51.380;13.372;2023-04-06T02:38:30;8.10;;;5.05;;
68523;SDS011;55524;51.380;13.372;2023-04-06T02:40:56;7.57;;;5.03;;
68523;SDS011;55524;51.380;13.372;2023-04-06T02:43:22;9.23;;;5.00;;
68523;SDS011;55524;51.380;13.372;2023-04-06T02:45:48;7.05;;;4.80;;
68523;SDS011;55524;51.380;13.372;2023-04-06T02:48:15;7.53;;;4.60;;
68523;SDS011;55524;51.380;13.372;2023-04-06T02:50:41;8.07;;;5.03;;
68523;SDS011;55524;51.380;13.372;2023-04-06T02:53:08;5.80;;;4.32;;
68523;SDS011;55524;51.380;13.372;2023-04-06T02:55:34;6.95;;;5.00;;
68523;SDS011;55524;51.380;13.372;2023-04-06T02:58:00;5.93;;;4.70;;
68523;SDS011;55524;51.380;13.372;2023-04-06T03:00:27;9.95;;;5.00;;
68523;SDS011;55524;51.380;13.372;2023-04-06T03:02:53;8.93;;;5.05;;
68523;SDS011;55524;51.380;13.372;2023-04-06T03:05:19;5.97;;;4.75;;
68523;SDS011;55524;51.380;13.372;2023-04-06T03:07:45;7.90;;;5.18;;
68523;SDS011;55524;51.380;13.372;2023-04-06T03:10:12;11.55;;;6.15;;
68523;SDS011;55524;51.380;13.372;2023-04-06T03:12:38;9.70;;;5.55;;
68523;SDS011;55524;51.380;13.372;2023-04-06T03:15:06;8.75;;;5.60;;
68523;SDS011;55524;51.380;13.372;2023-04-06T03:17:33;10.75;;;5.40;;
68523;SDS011;55524;51.380;13.372;2023-04-06T03:19:59;8.20;;;5.72;;
68523;SDS011;55524;51.380;13.372;2023-04-06T03:22:26;7.53;;;5.50;;
68523;SDS011;55524;51.380;13.372;2023-04-06T03:24:52;7.32;;;5.65;;
68523;SDS011;55524;51.380;13.372;2023-04-06T03:27:18;11.40;;;5.75;;
68523;SDS011;55524;51.380;13.372;2023-04-06T03:29:45;9.10;;;5.50;;
68523;SDS011;55524;51.380;13.372;2023-04-06T03:32:11;7.60;;;5.20;;
68523;SDS011;55524;51.380;13.372;2023-04-06T03:34:38;7.03;;;4.80;;
68523;SDS011;55524;51.380;13.372;2023-04-06T03:37:10;7.53;;;5.90;;
68523;SDS011;55524;51.380;13.372;2023-04-06T03:42:25;9.23;;;6.13;;
68523;SDS011;55524;51.380;13.372;2023-04-06T03:44:51;10.13;;;5.75;;
68523;SDS011;55524;51.380;13.372;2023-04-06T03:47:18;8.30;;;5.72;;
68523;SDS011;55524;51.380;13.372;2023-04-06T03:49:44;10.07;;;5.55;;
68523;SDS011;55524;51.380;13.372;2023-04-06T03:52:10;9.63;;;6.30;;
68523;SDS011;55524;51.380;13.372;2023-04-06T03:54:40;8.25;;;5.53;;
68523;SDS011;55524;51.380;13.372;2023-04-06T03:57:07;13.20;;;5.90;;
68523;SDS011;55524;51.380;13.372;2023-04-06T03:59:33;7.57;;;5.40;;
68523;SDS011;55524;51.380;13.372;2023-04-06T04:02:00;7.05;;;5.20;;
68523;SDS011;55524;51.380;13.372;2023-04-06T04:04:26;9.00;;;5.68;;
68523;SDS011;55524;51.380;13.372;2023-04-06T04:06:52;8.55;;;5.72;;
68523;SDS011;55524;51.380;13.372;2023-04-06T04:09:19;10.00;;;5.70;;
68523;SDS011;55524;51.380;13.372;2023-04-06T04:11:48;9.75;;;5.20;;
68523;SDS011;55524;51.380;13.372;2023-04-06T04:14:14;7.10;;;5.47;;
68523;SDS011;55524;51.380;13.372;2023-04-06T04:16:40;13.63;;;6.30;;
68523;SDS011;55524;51.380;13.372;2023-04-06T04:19:07;8.52;;;5.97;;
68523;SDS011;55524;51.380;13.372;2023-04-06T04:21:33;7.20;;;5.57;;
68523;SDS011;55524;51.380;13.372;2023-04-06T04:24:07;11.60;;;5.65;;
68523;SDS011;55524;51.380;13.372;2023-04-06T04:26:33;7.38;;;5.95;;
68523;SDS011;55524;51.380;13.372;2023-04-06T04:29:00;8.23;;;5.93;;
68523;SDS011;55524;51.380;13.372;2023-04-06T04:31:29;14.25;;;5.65;;
68523;SDS011;55524;51.380;13.372;2023-04-06T04:33:59;9.70;;;5.88;;
68523;SDS011;55524;51.380;13.372;2023-04-06T04:36:26;8.40;;;5.05;;
68523;SDS011;55524;51.380;13.372;2023-04-06T04:38:52;12.95;;;5.85;;
68523;SDS011;55524;51.380;13.372;2023-04-06T04:41:21;7.90;;;5.35;;
68523;SDS011;55524;51.380;13.372;2023-04-06T04:43:48;9.35;;;5.85;;
68523;SDS011;55524;51.380;13.372;2023-04-06T04:46:14;9.48;;;5.68;;
68523;SDS011;55524;51.380;13.372;2023-04-06T04:48:40;9.20;;;5.38;;
68523;SDS011;55524;51.380;13.372;2023-04-06T04:51:07;10.73;;;5.70;;
68523;SDS011;55524;51.380;13.372;2023-04-06T04:53:33;6.97;;;5.20;;
68523;SDS011;55524;51.380;13.372;2023-04-06T04:56:05;7.70;;;5.10;;
68523;SDS011;55524;51.380;13.372;2023-04-06T04:58:32;8.98;;;5.30;;
68523;SDS011;55524;51.380;13.372;2023-04-06T05:00:58;9.18;;;5.68;;
68523;SDS011;55524;51.380;13.372;2023-04-06T05:03:25;8.35;;;5.15;;
68523;SDS011;55524;51.380;13.372;2023-04-06T05:05:52;8.68;;;4.90;;
68523;SDS011;55524;51.380;13.372;2023-04-06T05:08:19;9.85;;;5.13;;
68523;SDS011;55524;51.380;13.372;2023-04-06T05:10:46;8.55;;;4.88;;
68523;SDS011;55524;51.380;13.372;2023-04-06T05:13:13;10.65;;;5.72;;
68523;SDS011;55524;51.380;13.372;2023-04-06T05:15:40;10.70;;;5.22;;
68523;SDS011;55524;51.380;13.372;2023-04-06T05:18:07;8.57;;;5.03;;
68523;SDS011;55524;51.380;13.372;2023-04-06T05:20:34;7.43;;;5.00;;
68523;SDS011;55524;51.380;13.372;2023-04-06T05:23:01;7.47;;;4.75;;
68523;SDS011;55524;51.380;13.372;2023-04-06T05:25:30;7.97;;;4.85;;
68523;SDS011;55524;51.380;13.372;2023-04-06T05:27:58;7.03;;;4.75;;
68523;SDS011;55524;51.380;13.372;2023-04-06T05:30:24;6.57;;;4.97;;
68523;SDS011;55524;51.380;13.372;2023-04-06T05:33:11;7.00;;;5.20;;
68523;SDS011;55524;51.380;13.372;2023-04-06T05:35:38;10.60;;;5.32;;
68523;SDS011;55524;51.380;13.372;2023-04-06T05:38:07;8.77;;;4.88;;
68523;SDS011;55524;51.380;13.372;2023-04-06T05:40:37;7.82;;;5.00;;
68523;SDS011;55524;51.380;13.372;2023-04-06T05:43:06;12.15;;;5.60;;
68523;SDS011;55524;51.380;13.372;2023-04-06T05:45:33;7.60;;;4.35;;
68523;SDS011;55524;51.380;13.372;2023-04-06T05:48:00;9.50;;;4.82;;
68523;SDS011;55524;51.380;13.372;2023-04-06T05:50:27;11.90;;;5.15;;
68523;SDS011;55524;51.380;13.372;2023-04-06T05:52:54;10.77;;;4.72;;
68523;SDS011;55524;51.380;13.372;2023-04-06T05:55:20;7.65;;;5.00;;
68523;SDS011;55524;51.380;13.372;2023-04-06T05:57:47;8.23;;;4.65;;
68523;SDS011;55524;51.380;13.372;2023-04-06T06:00:16;11.15;;;5.15;;
68523;SDS011;55524;51.380;13.372;2023-04-06T06:02:43;9.32;;;5.07;;
68523;SDS011;55524;51.380;13.372;2023-04-06T06:05:09;10.25;;;4.97;;
68523;SDS011;55524;51.380;13.372;2023-04-06T06:07:36;10.52;;;5.05;;
68523;SDS011;55524;51.380;13.372;2023-04-06T06:10:02;7.93;;;5.10;;
68523;SDS011;55524;51.380;13.372;2023-04-06T06:12:32;10.45;;;5.10;;
68523;SDS011;55524;51.380;13.372;2023-04-06T06:15:08;7.22;;;4.38;;
68523;SDS011;55524;51.380;13.372;2023-04-06T06:17:38;8.75;;;5.30;;
68523;SDS011;55524;51.380;13.372;2023-04-06T06:20:05;9.02;;;4.78;;
68523;SDS011;55524;51.380;13.372;2023-04-06T06:22:32;17.70;;;5.47;;
68523;SDS011;55524;51.380;13.372;2023-04-06T06:25:00;7.78;;;4.60;;
68523;SDS011;55524;51.380;13.372;2023-04-06T06:27:30;11.43;;;4.95;;
68523;SDS011;55524;51.380;13.372;2023-04-06T06:29:56;5.53;;;4.30;;
68523;SDS011;55524;51.380;13.372;2023-04-06T06:32:22;22.38;;;4.65;;
68523;SDS011;55524;51.380;13.372;2023-04-06T06:34:49;9.70;;;4.93;;
68523;SDS011;55524;51.380;13.372;2023-04-06T06:37:15;12.35;;;5.15;;
68523;SDS011;55524;51.380;13.372;2023-04-06T06:39:41;10.02;;;5.20;;
68523;SDS011;55524;51.380;13.372;2023-04-06T06:42:07;38.10;;;6.43;;
68523;SDS011;55524;51.380;13.372;2023-04-06T06:44:34;12.98;;;4.70;;
68523;SDS011;55524;51.380;13.372;2023-04-06T06:47:02;6.32;;;4.22;;
68523;SDS011;55524;51.380;13.372;2023-04-06T06:49:29;8.60;;;4.35;;
68523;SDS011;55524;51.380;13.372;2023-04-06T06:51:55;8.93;;;4.25;;
68523;SDS011;55524;51.380;13.372;2023-04-06T06:54:24;6.38;;;4.57;;
68523;SDS011;55524;51.380;13.372;2023-04-06T06:56:51;7.72;;;4.57;;
68523;SDS011;55524;51.380;13.372;2023-04-06T06:59:37;8.32;;;4.30;;
68523;SDS011;55524;51.380;13.372;2023-04-06T07:02:03;7.00;;;3.92;;
68523;SDS011;55524;51.380;13.372;2023-04-06T07:04:30;13.65;;;5.30;;
68523;SDS011;55524;51.380;13.372;2023-04-06T07:06:56;11.00;;;5.10;;
68523;SDS011;55524;51.380;13.372;2023-04-06T07:09:31;5.90;;;3.92;;
68523;SDS011;55524;51.380;13.372;2023-04-06T07:11:58;20.70;;;4.90;;
68523;SDS011;55524;51.380;13.372;2023-04-06T07:14:28;7.28;;;4.30;;
68523;SDS011;55524;51.380;13.372;2023-04-06T07:16:57;7.97;;;4.53;;
68523;SDS011;55524;51.380;13.372;2023-04-06T07:19:24;15.80;;;4.60;;
68523;SDS011;55524;51.380;13.372;2023-04-06T07:21:50;14.07;;;5.32;;
68523;SDS011;55524;51.380;13.372;2023-04-06T07:24:28;8.65;;;4.28;;
68523;SDS011;55524;51.380;13.372;2023-04-06T07:26:54;10.40;;;4.78;;
68523;SDS011;55524;51.380;13.372;2023-04-06T07:29:21;8.48;;;4.53;;
68523;SDS011;55524;51.380;13.372;2023-04-06T07:35:17;7.10;;;4.20;;
68523;SDS011;55524;51.380;13.372;2023-04-06T07:37:44;7.00;;;4.25;;
68523;SDS011;55524;51.380;13.372;2023-04-06T07:40:13;7.47;;;4.50;;
68523;SDS011;55524;51.380;13.372;2023-04-06T07:42:40;7.57;;;4.80;;
68523;SDS011;55524;51.380;13.372;2023-04-06T07:45:06;9.38;;;4.57;;
68523;SDS011;55524;51.380;13.372;2023-04-06T07:47:35;8.10;;;4.82;;
68523;SDS011;55524;51.380;13.372;2023-04-06T07:50:02;8.23;;;4.25;;
68523;SDS011;55524;51.380;13.372;2023-04-06T07:52:29;19.50;;;4.50;;
68523;SDS011;55524;51.380;13.372;2023-04-06T07:54:57;8.15;;;5.00;;
68523;SDS011;55524;51.380;13.372;2023-04-06T07:57:23;13.10;;;5.03;;
68523;SDS011;55524;51.380;13.372;2023-04-06T07:59:50;9.70;;;4.45;;
68523;SDS011;55524;51.380;13.372;2023-04-06T08:02:17;7.35;;;4.57;;
68523;SDS011;55524;51.380;13.372;2023-04-06T08:04:43;8.60;;;4.72;;
68523;SDS011;55524;51.380;13.372;2023-04-06T08:07:13;6.70;;;4.95;;
68523;SDS011;55524;51.380;13.372;2023-04-06T08:09:39;7.47;;;4.53;;
68523;SDS011;55524;51.380;13.372;2023-04-06T08:12:17;8.00;;;4.88;;
68523;SDS011;55524;51.380;13.372;2023-04-06T08:15:04;8.10;;;4.38;;
68523;SDS011;55524;51.380;13.372;2023-04-06T08:17:42;4.50;;;4.10;;
68523;SDS011;55524;51.380;13.372;2023-04-06T08:20:15;7.20;;;4.28;;
68523;SDS011;55524;51.380;13.372;2023-04-06T08:22:51;7.63;;;4.97;;
68523;SDS011;55524;51.380;13.372;2023-04-06T08:25:23;5.55;;;4.05;;
68523;SDS011;55524;51.380;13.372;2023-04-06T08:28:03;5.95;;;4.38;;
68523;SDS011;55524;51.380;13.372;2023-04-06T08:30:30;6.45;;;4.07;;
68523;SDS011;55524;51.380;13.372;2023-04-06T08:33:08;7.22;;;3.85;;
68523;SDS011;55524;51.380;13.372;2023-04-06T08:35:37;6.97;;;3.60;;
68523;SDS011;55524;51.380;13.372;2023-04-06T08:38:27;6.22;;;4.05;;
68523;SDS011;55524;51.380;13.372;2023-04-06T08:41:02;6.63;;;3.83;;
68523;SDS011;55524;51.380;13.372;2023-04-06T08:46:17;6.18;;;4.05;;
68523;SDS011;55524;51.380;13.372;2023-04-06T08:48:56;6.18;;;4.10;;
68523;SDS011;55524;51.380;13.372;2023-04-06T08:51:27;6.35;;;4.00;;
68523;SDS011;55524;51.380;13.372;2023-04-06T08:53:55;7.40;;;4.18;;
68523;SDS011;55524;51.380;13.372;2023-04-06T08:56:40;8.60;;;4.32;;
68523;SDS011;55524;51.380;13.372;2023-04-06T08:59:15;6.72;;;4.10;;
68523;SDS011;55524;51.380;13.372;2023-04-06T09:01:42;9.00;;;4.07;;
68523;SDS011;55524;51.380;13.372;2023-04-06T09:04:13;9.20;;;4.53;;
68523;SDS011;55524;51.380;13.372;2023-04-06T09:06:42;5.13;;;4.20;;
68523;SDS011;55524;51.380;13.372;2023-04-06T09:09:11;4.53;;;4.13;;
68523;SDS011;55524;51.380;13.372;2023-04-06T09:12:01;6.88;;;4.25;;
68523;SDS011;55524;51.380;13.372;2023-04-06T09:14:37;12.38;;;4.45;;
68523;SDS011;55524;51.380;13.372;2023-04-06T09:17:04;10.50;;;4.47;;
68523;SDS011;55524;51.380;13.372;2023-04-06T09:22:37;6.25;;;4.10;;
68523;SDS011;55524;51.380;13.372;2023-04-06T09:25:04;18.25;;;5.28;;
68523;SDS011;55524;51.380;13.372;2023-04-06T09:27:37;7.63;;;4.13;;
68523;SDS011;55524;51.380;13.372;2023-04-06T09:30:10;7.10;;;4.18;;
68523;SDS011;55524;51.380;13.372;2023-04-06T09:32:48;10.57;;;3.90;;
68523;SDS011;55524;51.380;13.372;2023-04-06T09:35:19;6.75;;;3.80;;
68523;SDS011;55524;51.380;13.372;2023-04-06T09:38:10;7.22;;;3.80;;
68523;SDS011;55524;51.380;13.372;2023-04-06T09:40:51;4.13;;;3.70;;
68523;SDS011;55524;51.380;13.372;2023-04-06T09:43:38;5.22;;;3.75;;
68523;SDS011;55524;51.380;13.372;2023-04-06T09:46:04;6.95;;;3.78;;
68523;SDS011;55524;51.380;13.372;2023-04-06T09:48:34;5.93;;;3.88;;
68523;SDS011;55524;51.380;13.372;2023-04-06T09:51:03;10.35;;;4.18;;
68523;SDS011;55524;51.380;13.372;2023-04-06T09:53:32;5.75;;;3.53;;
68523;SDS011;55524;51.380;13.372;2023-04-06T09:56:06;6.57;;;3.53;;
68523;SDS011;55524;51.380;13.372;2023-04-06T09:58:40;3.70;;;3.33;;
68523;SDS011;55524;51.380;13.372;2023-04-06T10:01:19;5.70;;;3.95;;
68523;SDS011;55524;51.380;13.372;2023-04-06T10:03:55;4.63;;;3.70;;
68523;SDS011;55524;51.380;13.372;2023-04-06T10:06:40;6.25;;;2.90;;
68523;SDS011;55524;51.380;13.372;2023-04-06T10:09:09;4.38;;;3.13;;
68523;SDS011;55524;51.380;13.372;2023-04-06T10:11:39;3.33;;;3.03;;
68523;SDS011;55524;51.380;13.372;2023-04-06T10:14:09;7.10;;;4.13;;
68523;SDS011;55524;51.380;13.372;2023-04-06T10:16:38;4.28;;;3.60;;
68523;SDS011;55524;51.380;13.372;2023-04-06T10:19:10;10.98;;;3.80;;
68523;SDS011;55524;51.380;13.372;2023-04-06T10:21:46;4.55;;;3.78;;
68523;SDS011;55524;51.380;13.372;2023-04-06T10:24:24;4.35;;;3.28;;
68523;SDS011;55524;51.380;13.372;2023-04-06T10:27:04;4.38;;;3.35;;
68523;SDS011;55524;51.380;13.372;2023-04-06T10:29:47;4.20;;;3.50;;
68523;SDS011;55524;51.380;13.372;2023-04-06T10:32:15;5.22;;;3.72;;
68523;SDS011;55524;51.380;13.372;2023-04-06T10:35:11;5.05;;;3.75;;
68523;SDS011;55524;51.380;13.372;2023-04-06T10:37:51;4.60;;;3.28;;
68523;SDS011;55524;51.380;13.372;2023-04-06T10:40:27;3.63;;;3.17;;
68523;SDS011;55524;51.380;13.372;2023-04-06T10:48:52;7.13;;;3.90;;
68523;SDS011;55524;51.380;13.372;2023-04-06T10:51:37;4.93;;;3.50;;
68523;SDS011;55524;51.380;13.372;2023-04-06T10:54:30;4.40;;;3.78;;
68523;SDS011;55524;51.380;13.372;2023-04-06T10:57:27;4.57;;;3.78;;
68523;SDS011;55524;51.380;13.372;2023-04-06T10:59:59;4.32;;;3.83;;
68523;SDS011;55524;51.380;13.372;2023-04-06T11:02:34;5.72;;;3.60;;
68523;SDS011;55524;51.380;13.372;2023-04-06T11:05:03;5.68;;;3.60;;
68523;SDS011;55524;51.380;13.372;2023-04-06T11:07:32;10.50;;;4.10;;
68523;SDS011;55524;51.380;13.372;2023-04-06T11:09:58;6.38;;;3.45;;
68523;SDS011;55524;51.380;13.372;2023-04-06T11:12:36;9.35;;;3.83;;
68523;SDS011;55524;51.380;13.372;2023-04-06T11:18:03;4.25;;;3.38;;
68523;SDS011;55524;51.380;13.372;2023-04-06T11:20:37;4.32;;;3.92;;
68523;SDS011;55524;51.380;13.372;2023-04-06T11:23:03;4.78;;;3.70;;
68523;SDS011;55524;51.380;13.372;2023-04-06T11:25:31;16.95;;;3.40;;
68523;SDS011;55524;51.380;13.372;2023-04-06T11:27:57;26.58;;;4.20;;
68523;SDS011;55524;51.380;13.372;2023-04-06T11:30:24;42.72;;;5.35;;
68523;SDS011;55524;51.380;13.372;2023-04-06T11:32:51;4.75;;;3.33;;
68523;SDS011;55524;51.380;13.372;2023-04-06T11:35:20;5.00;;;3.63;;
68523;SDS011;55524;51.380;13.372;2023-04-06T11:37:50;13.82;;;3.30;;
68523;SDS011;55524;51.380;13.372;2023-04-06T11:40:35;3.60;;;3.30;;
68523;SDS011;55524;51.380;13.372;2023-04-06T11:43:04;5.95;;;3.40;;
68523;SDS011;55524;51.380;13.372;2023-04-06T11:45:39;4.22;;;3.60;;
68523;SDS011;55524;51.380;13.372;2023-04-06T11:48:17;4.00;;;3.60;;
68523;SDS011;55524;51.380;13.372;2023-04-06T11:50:46;4.05;;;3.65;;
68523;SDS011;55524;51.380;13.372;2023-04-06T11:53:13;6.40;;;3.65;;
68523;SDS011;55524;51.380;13.372;2023-04-06T11:55:39;7.03;;;3.75;;
68523;SDS011;55524;51.380;13.372;2023-04-06T11:58:10;4.78;;;4.07;;
68523;SDS011;55524;51.380;13.372;2023-04-06T12:00:36;3.83;;;3.55;;
68523;SDS011;55524;51.380;13.372;2023-04-06T12:03:02;3.63;;;3.20;;
68523;SDS011;55524;51.380;13.372;2023-04-06T12:05:29;4.38;;;3.97;;
68523;SDS011;55524;51.380;13.372;2023-04-06T12:07:55;9.30;;;3.95;;
68523;SDS011;55524;51.380;13.372;2023-04-06T12:10:22;5.78;;;3.70;;
68523;SDS011;55524;51.380;13.372;2023-04-06T12:12:48;4.38;;;3.50;;
68523;SDS011;55524;51.380;13.372;2023-04-06T12:15:15;4.05;;;3.60;;
68523;SDS011;55524;51.380;13.372;2023-04-06T12:17:42;6.22;;;3.70;;
68523;SDS011;55524;51.380;13.372;2023-04-06T12:20:09;5.60;;;3.80;;
68523;SDS011;55524;51.380;13.372;2023-04-06T12:22:36;3.40;;;3.13;;
68523;SDS011;55524;51.380;13.372;2023-04-06T12:25:02;12.70;;;4.75;;
68523;SDS011;55524;51.380;13.372;2023-04-06T12:27:29;13.75;;;3.83;;
68523;SDS011;55524;51.380;13.372;2023-04-06T12:29:55;7.03;;;4.22;;
68523;SDS011;55524;51.380;13.372;2023-04-06T12:32:21;6.35;;;3.80;;
68523;SDS011;55524;51.380;13.372;2023-04-06T12:34:48;6.03;;;3.72;;
68523;SDS011;55524;51.380;13.372;2023-04-06T12:37:14;4.78;;;3.65;;
68523;SDS011;55524;51.380;13.372;2023-04-06T12:39:40;8.63;;;4.32;;
68523;SDS011;55524;51.380;13.372;2023-04-06T12:42:09;30.10;;;5.88;;
68523;SDS011;55524;51.380;13.372;2023-04-06T12:44:35;32.40;;;4.82;;
68523;SDS011;55524;51.380;13.372;2023-04-06T12:47:02;15.32;;;4.25;;
68523;SDS011;55524;51.380;13.372;2023-04-06T12:49:28;8.18;;;3.90;;
68523;SDS011;55524;51.380;13.372;2023-04-06T12:51:55;5.20;;;4.00;;
68523;SDS011;55524;51.380;13.372;2023-04-06T12:54:21;4.20;;;3.72;;
68523;SDS011;55524;51.380;13.372;2023-04-06T12:56:48;3.97;;;3.47;;
68523;SDS011;55524;51.380;13.372;2023-04-06T12:59:14;4.32;;;3.92;;
68523;SDS011;55524;51.380;13.372;2023-04-06T13:01:41;8.82;;;3.88;;
68523;SDS011;55524;51.380;13.372;2023-04-06T13:04:09;9.80;;;4.40;;
68523;SDS011;55524;51.380;13.372;2023-04-06T13:06:35;4.05;;;3.65;;
68523;SDS011;55524;51.380;13.372;2023-04-06T13:09:01;6.32;;;4.10;;
68523;SDS011;55524;51.380;13.372;2023-04-06T13:11:29;12.23;;;4.45;;
68523;SDS011;55524;51.380;13.372;2023-04-06T13:13:55;5.00;;;3.88;;
68523;SDS011;55524;51.380;13.372;2023-04-06T13:16:22;5.20;;;4.32;;
68523;SDS011;55524;51.380;13.372;2023-04-06T13:18:48;5.43;;;3.90;;
68523;SDS011;55524;51.380;13.372;2023-04-06T13:21:15;4.38;;;3.67;;
68523;SDS011;55524;51.380;13.372;2023-04-06T13:23:41;6.03;;;4.28;;
68523;SDS011;55524;51.380;13.372;2023-04-06T13:26:10;4.40;;;4.00;;
68523;SDS011;55524;51.380;13.372;2023-04-06T13:28:38;4.65;;;4.20;;
68523;SDS011;55524;51.380;13.372;2023-04-06T13:31:05;4.80;;;4.30;;
68523;SDS011;55524;51.380;13.372;2023-04-06T13:33:31;6.10;;;4.10;;
68523;SDS011;55524;51.380;13.372;2023-04-06T13:35:59;4.20;;;3.90;;
68523;SDS011;55524;51.380;13.372;2023-04-06T13:38:26;5.63;;;4.15;;
68523;SDS011;55524;51.380;13.372;2023-04-06T13:40:53;5.97;;;3.90;;
68523;SDS011;55524;51.380;13.372;2023-04-06T13:43:21;8.02;;;4.03;;
68523;SDS011;55524;51.380;13.372;2023-04-06T13:45:51;5.60;;;3.65;;
68523;SDS011;55524;51.380;13.372;2023-04-06T13:48:20;11.05;;;4.20;;
68523;SDS011;55524;51.380;13.372;2023-04-06T13:50:46;12.95;;;3.80;;
68523;SDS011;55524;51.380;13.372;2023-04-06T13:53:13;5.05;;;3.78;;
68523;SDS011;55524;51.380;13.372;2023-04-06T13:55:39;5.45;;;4.35;;
68523;SDS011;55524;51.380;13.372;2023-04-06T13:58:06;4.25;;;3.88;;
68523;SDS011;55524;51.380;13.372;2023-04-06T14:00:32;6.57;;;4.45;;
68523;SDS011;55524;51.380;13.372;2023-04-06T14:02:58;6.82;;;4.10;;
68523;SDS011;55524;51.380;13.372;2023-04-06T14:05:25;5.15;;;4.15;;
68523;SDS011;55524;51.380;13.372;2023-04-06T14:07:52;4.43;;;4.00;;
68523;SDS011;55524;51.380;13.372;2023-04-06T14:10:19;4.40;;;3.92;;
68523;SDS011;55524;51.380;13.372;2023-04-06T14:12:48;4.70;;;4.20;;
68523;SDS011;55524;51.380;13.372;2023-04-06T14:15:15;4.38;;;4.07;;
68523;SDS011;55524;51.380;13.372;2023-04-06T14:17:41;6.95;;;4.07;;
68523;SDS011;55524;51.380;13.372;2023-04-06T14:20:08;4.50;;;4.10;;
68523;SDS011;55524;51.380;13.372;2023-04-06T14:22:40;7.60;;;4.65;;
68523;SDS011;55524;51.380;13.372;2023-04-06T14:25:09;5.30;;;4.40;;
68523;SDS011;55524;51.380;13.372;2023-04-06T14:27:36;5.00;;;3.50;;
68523;SDS011;55524;51.380;13.372;2023-04-06T14:30:02;4.28;;;3.80;;
68523;SDS011;55524;51.380;13.372;2023-04-06T14:32:29;4.45;;;4.05;;
68523;SDS011;55524;51.380;13.372;2023-04-06T14:34:55;4.07;;;3.67;;
68523;SDS011;55524;51.380;13.372;2023-04-06T14:37:21;7.55;;;5.13;;
68523;SDS011;55524;51.380;13.372;2023-04-06T14:39:48;5.70;;;3.92;;
68523;SDS011;55524;51.380;13.372;2023-04-06T14:42:14;4.88;;;4.32;;
68523;SDS011;55524;51.380;13.372;2023-04-06T14:44:41;5.20;;;4.13;;
68523;SDS011;55524;51.380;13.372;2023-04-06T14:47:09;4.63;;;4.10;;
68523;SDS011;55524;51.380;13.372;2023-04-06T14:49:36;5.00;;;3.97;;
68523;SDS011;55524;51.380;13.372;2023-04-06T14:52:02;4.22;;;3.55;;
68523;SDS011;55524;51.380;13.372;2023-04-06T14:54:29;5.53;;;4.10;;
68523;SDS011;55524;51.380;13.372;2023-04-06T14:56:56;5.07;;;4.20;;
68523;SDS011;55524;51.380;13.372;2023-04-06T14:59:22;4.45;;;4.05;;
68523;SDS011;55524;51.380;13.372;2023-04-06T15:01:48;4.28;;;3.88;;
68523;SDS011;55524;51.380;13.372;2023-04-06T15:04:16;5.15;;;3.97;;